sensor_id;sensor_type;location;lat;lon;timestamp;pressure;altitude;pressure_sealevel;temperature;humidity
48053;BME280;33824;51.600;5.718;2023-12-20T00:02:17;101444.13;;;7.23;100.00
48053;BME280;33824;51.600;5.718;2023-12-20T00:04:43;101445.66;;;7.16;100.00
48053;BME280;33824;51.600;5.718;2023-12-20T00:07:09;101447.34;;;7.07;100.00
48053;BME280;33824;51.600;5.718;2023-12-20T00:09:34;101450.25;;;7.04;100.00
48053;BME280;33824;51.600;5.718;2023-12-20T00:12:00;101447.19;;;6.99;100.00
48053;BME280;33824;51.600;5.718;2023-12-20T00:14:25;101440.59;;;6.94;100.00
48053;BME280;33824;51.600;5.718;2023-12-20T00:16:51;101444.09;;;6.85;100.00
48053;BME280;33824;51.600;5.718;2023-12-20T00:19:17;101453.13;;;6.82;100.00
48053;BME280;33824;51.600;5.718;2023-12-20T00:21:42;101447.66;;;6.74;100.00
48053;BME280;33824;51.600;5.718;2023-12-20T00:24:08;101446.53;;;6.67;100.00
48053;BME280;33824;51.600;5.718;2023-12-20T00:26:33;101456.44;;;6.65;100.00
48053;BME280;33824;51.600;5.718;2023-12-20T00:28:59;101459.09;;;6.65;100.00
48053;BME280;33824;51.600;5.718;2023-12-20T00:31:25;101453.78;;;6.65;100.00
48053;BME280;33824;51.600;5.718;2023-12-20T00:33:50;101455.44;;;6.66;100.00
48053;BME280;33824;51.600;5.718;2023-12-20T00:36:16;101450.56;;;6.61;100.00
48053;BME280;33824;51.600;5.718;2023-12-20T00:38:41;101449.00;;;6.59;100.00
48053;BME280;33824;51.600;5.718;2023-12-20T00:41:07;101444.69;;;6.58;100.00
48053;BME280;33824;51.600;5.718;2023-12-20T00:43:32;101448.59;;;6.54;100.00
48053;BME280;33824;51.600;5.718;2023-12-20T00:45:58;101442.44;;;6.53;100.00
48053;BME280;33824;51.600;5.718;2023-12-20T00:48:25;101436.56;;;6.50;100.00
48053;BME280;33824;51.600;5.718;2023-12-20T00:50:52;101440.44;;;6.46;100.00
48053;BME280;33824;51.600;5.718;2023-12-20T00:53:18;101435.66;;;6.40;100.00
48053;BME280;33824;51.600;5.718;2023-12-20T00:55:44;101438.75;;;6.35;100.00
48053;BME280;33824;51.600;5.718;2023-12-20T00:58:10;101431.03;;;6.32;100.00
48053;BME280;33824;51.600;5.718;2023-12-20T01:00:36;101434.22;;;6.26;100.00
48053;BME280;33824;51.600;5.718;2023-12-20T01:03:01;101436.16;;;6.24;100.00
48053;BME280;33824;51.600;5.718;2023-12-20T01:05:27;101430.53;;;6.17;100.00
48053;BME280;33824;51.600;5.718;2023-12-20T01:07:53;101432.63;;;6.14;100.00
48053;BME280;33824;51.600;5.718;2023-12-20T01:10:18;101425.06;;;6.09;100.00
48053;BME280;33824;51.600;5.718;2023-12-20T01:12:44;101431.59;;;6.05;100.00
48053;BME280;33824;51.600;5.718;2023-12-20T01:15:10;101438.44;;;6.08;100.00
48053;BME280;33824;51.600;5.718;2023-12-20T01:17:35;101447.34;;;6.07;100.00
48053;BME280;33824;51.600;5.718;2023-12-20T01:20:01;101441.47;;;6.03;100.00
48053;BME280;33824;51.600;5.718;2023-12-20T01:22:26;101445.25;;;6.01;100.00
48053;BME280;33824;51.600;5.718;2023-12-20T01:24:52;101450.84;;;6.07;100.00
48053;BME280;33824;51.600;5.718;2023-12-20T01:27:18;101446.66;;;6.05;100.00
48053;BME280;33824;51.600;5.718;2023-12-20T01:29:44;101445.09;;;6.02;100.00
48053;BME280;33824;51.600;5.718;2023-12-20T01:32:09;101447.75;;;6.02;100.00
48053;BME280;33824;51.600;5.718;2023-12-20T01:34:35;101450.69;;;6.09;100.00
48053;BME280;33824;51.600;5.718;2023-12-20T01:37:01;101453.09;;;6.12;100.00
48053;BME280;33824;51.600;5.718;2023-12-20T01:39:27;101452.84;;;6.15;100.00
48053;BME280;33824;51.600;5.718;2023-12-20T01:41:52;101456.63;;;6.22;100.00
48053;BME280;33824;51.600;5.718;2023-12-20T01:44:18;101465.28;;;6.24;100.00
48053;BME280;33824;51.600;5.718;2023-12-20T01:46:43;101463.34;;;6.26;100.00
48053;BME280;33824;51.600;5.718;2023-12-20T01:49:09;101448.34;;;6.36;100.00
48053;BME280;33824;51.600;5.718;2023-12-20T01:51:35;101457.97;;;6.37;100.00
48053;BME280;33824;51.600;5.718;2023-12-20T01:54:01;101457.69;;;6.40;100.00
48053;BME280;33824;51.600;5.718;2023-12-20T01:56:27;101457.84;;;6.39;100.00
48053;BME280;33824;51.600;5.718;2023-12-20T01:58:54;101463.28;;;6.37;100.00
48053;BME280;33824;51.600;5.718;2023-12-20T02:01:21;101464.50;;;6.33;100.00
48053;BME280;33824;51.600;5.718;2023-12-20T02:03:47;101456.94;;;6.28;100.00
48053;BME280;33824;51.600;5.718;2023-12-20T02:06:12;101448.44;;;6.25;100.00
48053;BME280;33824;51.600;5.718;2023-12-20T02:08:38;101453.53;;;6.17;100.00
48053;BME280;33824;51.600;5.718;2023-12-20T02:11:04;101445.41;;;6.09;100.00
48053;BME280;33824;51.600;5.718;2023-12-20T02:13:30;101449.53;;;6.02;100.00
48053;BME280;33824;51.600;5.718;2023-12-20T02:15:56;101453.09;;;5.91;100.00
48053;BME280;33824;51.600;5.718;2023-12-20T02:18:22;101454.91;;;5.91;100.00
48053;BME280;33824;51.600;5.718;2023-12-20T02:20:47;101454.44;;;5.86;100.00
48053;BME280;33824;51.600;5.718;2023-12-20T02:23:13;101445.19;;;5.80;100.00
48053;BME280;33824;51.600;5.718;2023-12-20T02:25:38;101448.47;;;5.72;100.00
48053;BME280;33824;51.600;5.718;2023-12-20T02:28:05;101438.75;;;5.73;100.00
48053;BME280;33824;51.600;5.718;2023-12-20T02:30:31;101443.44;;;5.69;100.00
48053;BME280;33824;51.600;5.718;2023-12-20T02:32:56;101442.50;;;5.70;100.00
48053;BME280;33824;51.600;5.718;2023-12-20T02:35:22;101449.13;;;5.65;100.00
48053;BME280;33824;51.600;5.718;2023-12-20T02:37:48;101434.66;;;5.69;100.00
48053;BME280;33824;51.600;5.718;2023-12-20T02:40:13;101456.78;;;5.68;100.00
48053;BME280;33824;51.600;5.718;2023-12-20T02:42:39;101442.88;;;5.66;100.00
48053;BME280;33824;51.600;5.718;2023-12-20T02:45:05;101439.97;;;5.69;100.00
48053;BME280;33824;51.600;5.718;2023-12-20T02:47:31;101442.03;;;5.65;100.00
48053;BME280;33824;51.600;5.718;2023-12-20T02:49:56;101442.13;;;5.64;100.00
48053;BME280;33824;51.600;5.718;2023-12-20T02:52:23;101441.06;;;5.66;100.00
48053;BME280;33824;51.600;5.718;2023-12-20T02:54:49;101443.44;;;5.69;100.00
48053;BME280;33824;51.600;5.718;2023-12-20T02:57:14;101444.69;;;5.65;100.00
48053;BME280;33824;51.600;5.718;2023-12-20T02:59:40;101442.97;;;5.64;100.00
48053;BME280;33824;51.600;5.718;2023-12-20T03:02:05;101436.59;;;5.67;100.00
48053;BME280;33824;51.600;5.718;2023-12-20T03:04:31;101439.38;;;5.65;100.00
48053;BME280;33824;51.600;5.718;2023-12-20T03:06:56;101443.84;;;5.65;100.00
48053;BME280;33824;51.600;5.718;2023-12-20T03:09:22;101444.69;;;5.65;100.00
48053;BME280;33824;51.600;5.718;2023-12-20T03:11:49;101435.50;;;5.69;100.00
48053;BME280;33824;51.600;5.718;2023-12-20T03:14:14;101434.28;;;5.73;100.00
48053;BME280;33824;51.600;5.718;2023-12-20T03:16:40;101431.50;;;5.75;100.00
48053;BME280;33824;51.600;5.718;2023-12-20T03:19:05;101428.28;;;5.71;100.00
48053;BME280;33824;51.600;5.718;2023-12-20T03:21:31;101421.31;;;5.70;100.00
48053;BME280;33824;51.600;5.718;2023-12-20T03:23:56;101411.56;;;5.71;100.00
48053;BME280;33824;51.600;5.718;2023-12-20T03:26:22;101424.78;;;5.71;100.00
48053;BME280;33824;51.600;5.718;2023-12-20T03:28:48;101413.38;;;5.70;100.00
48053;BME280;33824;51.600;5.718;2023-12-20T03:31:14;101420.59;;;5.68;100.00
48053;BME280;33824;51.600;5.718;2023-12-20T03:33:39;101417.25;;;5.66;100.00
48053;BME280;33824;51.600;5.718;2023-12-20T03:36:06;101410.84;;;5.69;100.00
48053;BME280;33824;51.600;5.718;2023-12-20T03:38:31;101411.81;;;5.68;100.00
48053;BME280;33824;51.600;5.718;2023-12-20T03:40:57;101411.81;;;5.68;100.00
48053;BME280;33824;51.600;5.718;2023-12-20T03:43:22;101405.94;;;5.64;100.00
48053;BME280;33824;51.600;5.718;2023-12-20T03:45:48;101403.19;;;5.66;100.00
48053;BME280;33824;51.600;5.718;2023-12-20T03:48:13;101403.19;;;5.66;100.00
48053;BME280;33824;51.600;5.718;2023-12-20T03:50:39;101402.06;;;5.68;100.00
48053;BME280;33824;51.600;5.718;2023-12-20T03:53:04;101402.53;;;5.73;100.00
48053;BME280;33824;51.600;5.718;2023-12-20T03:55:30;101407.31;;;5.79;100.00
48053;BME280;33824;51.600;5.718;2023-12-20T03:57:55;101416.53;;;5.85;100.00
48053;BME280;33824;51.600;5.718;2023-12-20T04:00:23;101408.84;;;5.93;100.00
48053;BME280;33824;51.600;5.718;2023-12-20T04:02:49;101406.75;;;5.97;100.00
48053;BME280;33824;51.600;5.718;2023-12-20T04:05:14;101417.66;;;6.03;100.00
48053;BME280;33824;51.600;5.718;2023-12-20T04:07:40;101425.34;;;6.06;100.00
48053;BME280;33824;51.600;5.718;2023-12-20T04:10:06;101410.47;;;6.15;100.00
48053;BME280;33824;51.600;5.718;2023-12-20T04:12:32;101413.41;;;6.12;100.00
48053;BME280;33824;51.600;5.718;2023-12-20T04:14:58;101401.69;;;6.14;100.00
48053;BME280;33824;51.600;5.718;2023-12-20T04:17:23;101397.81;;;6.18;100.00
48053;BME280;33824;51.600;5.718;2023-12-20T04:19:50;101410.50;;;6.24;100.00
48053;BME280;33824;51.600;5.718;2023-12-20T04:22:15;101408.84;;;6.23;100.00
48053;BME280;33824;51.600;5.718;2023-12-20T04:24:41;101413.03;;;6.26;100.00
48053;BME280;33824;51.600;5.718;2023-12-20T04:27:10;101410.13;;;6.29;100.00
48053;BME280;33824;51.600;5.718;2023-12-20T04:29:35;101411.06;;;6.28;100.00
48053;BME280;33824;51.600;5.718;2023-12-20T04:32:01;101409.28;;;6.28;100.00
48053;BME280;33824;51.600;5.718;2023-12-20T04:34:27;101415.16;;;6.32;100.00
48053;BME280;33824;51.600;5.718;2023-12-20T04:36:53;101408.22;;;6.41;100.00
48053;BME280;33824;51.600;5.718;2023-12-20T04:39:19;101409.34;;;6.38;100.00
48053;BME280;33824;51.600;5.718;2023-12-20T04:41:44;101411.81;;;6.40;100.00
48053;BME280;33824;51.600;5.718;2023-12-20T04:44:10;101408.09;;;6.42;100.00
48053;BME280;33824;51.600;5.718;2023-12-20T04:46:35;101409.34;;;6.48;100.00
48053;BME280;33824;51.600;5.718;2023-12-20T04:49:01;101405.75;;;6.49;100.00
48053;BME280;33824;51.600;5.718;2023-12-20T04:51:27;101411.34;;;6.55;100.00
48053;BME280;33824;51.600;5.718;2023-12-20T04:53:53;101409.53;;;6.56;100.00
48053;BME280;33824;51.600;5.718;2023-12-20T04:56:18;101411.63;;;6.52;100.00
48053;BME280;33824;51.600;5.718;2023-12-20T04:58:44;101417.19;;;6.49;100.00
48053;BME280;33824;51.600;5.718;2023-12-20T05:01:10;101403.38;;;6.46;100.00
48053;BME280;33824;51.600;5.718;2023-12-20T05:03:36;101402.06;;;6.40;100.00
48053;BME280;33824;51.600;5.718;2023-12-20T05:06:01;101407.38;;;6.40;100.00
48053;BME280;33824;51.600;5.718;2023-12-20T05:08:27;101401.97;;;6.42;100.00
48053;BME280;33824;51.600;5.718;2023-12-20T05:10:54;101408.94;;;6.43;100.00
48053;BME280;33824;51.600;5.718;2023-12-20T05:13:20;101400.56;;;6.47;100.00
48053;BME280;33824;51.600;5.718;2023-12-20T05:15:46;101392.94;;;6.54;100.00
48053;BME280;33824;51.600;5.718;2023-12-20T05:18:12;101383.59;;;6.59;100.00
48053;BME280;33824;51.600;5.718;2023-12-20T05:20:38;101393.91;;;6.62;100.00
48053;BME280;33824;51.600;5.718;2023-12-20T05:23:04;101387.66;;;6.63;100.00
48053;BME280;33824;51.600;5.718;2023-12-20T05:25:29;101384.72;;;6.66;100.00
48053;BME280;33824;51.600;5.718;2023-12-20T05:27:55;101387.38;;;6.66;100.00
48053;BME280;33824;51.600;5.718;2023-12-20T05:30:21;101393.53;;;6.67;100.00
48053;BME280;33824;51.600;5.718;2023-12-20T05:32:47;101380.47;;;6.85;100.00
48053;BME280;33824;51.600;5.718;2023-12-20T05:35:13;101380.91;;;6.99;100.00
48053;BME280;33824;51.600;5.718;2023-12-20T05:37:38;101388.56;;;7.02;100.00
48053;BME280;33824;51.600;5.718;2023-12-20T05:40:04;101378.41;;;7.07;100.00
48053;BME280;33824;51.600;5.718;2023-12-20T05:42:30;101382.88;;;7.07;100.00
48053;BME280;33824;51.600;5.718;2023-12-20T05:44:55;101376.31;;;7.11;100.00
48053;BME280;33824;51.600;5.718;2023-12-20T05:47:21;101372.81;;;7.10;100.00
48053;BME280;33824;51.600;5.718;2023-12-20T05:49:47;101382.47;;;7.11;100.00
48053;BME280;33824;51.600;5.718;2023-12-20T05:52:12;101378.97;;;7.11;100.00
48053;BME280;33824;51.600;5.718;2023-12-20T05:54:38;101374.75;;;7.08;100.00
48053;BME280;33824;51.600;5.718;2023-12-20T05:57:04;101385.91;;;7.12;100.00
48053;BME280;33824;51.600;5.718;2023-12-20T05:59:29;101381.75;;;7.09;100.00
48053;BME280;33824;51.600;5.718;2023-12-20T06:01:55;101392.22;;;7.11;100.00
48053;BME280;33824;51.600;5.718;2023-12-20T06:04:20;101396.28;;;7.15;100.00
48053;BME280;33824;51.600;5.718;2023-12-20T06:06:46;101405.88;;;7.16;100.00
48053;BME280;33824;51.600;5.718;2023-12-20T06:09:11;101404.34;;;7.13;100.00
48053;BME280;33824;51.600;5.718;2023-12-20T06:11:37;101406.16;;;7.13;100.00
48053;BME280;33824;51.600;5.718;2023-12-20T06:14:02;101416.78;;;7.13;100.00
48053;BME280;33824;51.600;5.718;2023-12-20T06:16:28;101429.75;;;7.16;100.00
48053;BME280;33824;51.600;5.718;2023-12-20T06:18:53;101416.94;;;7.11;100.00
48053;BME280;33824;51.600;5.718;2023-12-20T06:21:19;101423.59;;;7.15;100.00
48053;BME280;33824;51.600;5.718;2023-12-20T06:23:45;101412.31;;;7.13;100.00
48053;BME280;33824;51.600;5.718;2023-12-20T06:26:10;101422.63;;;7.16;100.00
48053;BME280;33824;51.600;5.718;2023-12-20T06:28:36;101417.19;;;7.08;100.00
48053;BME280;33824;51.600;5.718;2023-12-20T06:31:02;101428.91;;;7.06;100.00
48053;BME280;33824;51.600;5.718;2023-12-20T06:33:28;101408.38;;;7.08;100.00
48053;BME280;33824;51.600;5.718;2023-12-20T06:35:54;101406.84;;;7.05;100.00
48053;BME280;33824;51.600;5.718;2023-12-20T06:38:20;101411.47;;;7.03;100.00
48053;BME280;33824;51.600;5.718;2023-12-20T06:40:46;101407.81;;;7.04;100.00
48053;BME280;33824;51.600;5.718;2023-12-20T06:43:12;101402.69;;;7.03;100.00
48053;BME280;33824;51.600;5.718;2023-12-20T06:45:38;101407.69;;;7.06;100.00
48053;BME280;33824;51.600;5.718;2023-12-20T06:48:04;101402.69;;;7.03;100.00
48053;BME280;33824;51.600;5.718;2023-12-20T06:50:30;101405.16;;;7.04;100.00
48053;BME280;33824;51.600;5.718;2023-12-20T06:52:56;101403.66;;;7.02;100.00
48053;BME280;33824;51.600;5.718;2023-12-20T06:55:22;101406.84;;;7.05;100.00
48053;BME280;33824;51.600;5.718;2023-12-20T06:57:47;101413.00;;;7.06;100.00
48053;BME280;33824;51.600;5.718;2023-12-20T07:00:13;101405.47;;;7.01;100.00
48053;BME280;33824;51.600;5.718;2023-12-20T07:02:39;101397.91;;;6.97;100.00
48053;BME280;33824;51.600;5.718;2023-12-20T07:05:04;101406.84;;;6.96;100.00
48053;BME280;33824;51.600;5.718;2023-12-20T07:07:30;101398.91;;;6.96;100.00
48053;BME280;33824;51.600;5.718;2023-12-20T07:09:56;101407.94;;;6.93;100.00
48053;BME280;33824;51.600;5.718;2023-12-20T07:12:21;101389.53;;;6.92;100.00
48053;BME280;33824;51.600;5.718;2023-12-20T07:14:47;101398.75;;;6.88;100.00
48053;BME280;33824;51.600;5.718;2023-12-20T07:17:13;101398.03;;;6.86;100.00
48053;BME280;33824;51.600;5.718;2023-12-20T07:19:41;101391.63;;;6.88;100.00
48053;BME280;33824;51.600;5.718;2023-12-20T07:22:07;101384.22;;;6.82;100.00
48053;BME280;33824;51.600;5.718;2023-12-20T07:24:33;101388.41;;;6.85;100.00
48053;BME280;33824;51.600;5.718;2023-12-20T07:27:00;101390.22;;;6.84;100.00
48053;BME280;33824;51.600;5.718;2023-12-20T07:29:26;101384.09;;;6.84;100.00
48053;BME280;33824;51.600;5.718;2023-12-20T07:31:53;101395.09;;;6.79;100.00
48053;BME280;33824;51.600;5.718;2023-12-20T07:34:20;101395.94;;;6.80;100.00
48053;BME280;33824;51.600;5.718;2023-12-20T07:36:45;101400.28;;;6.81;100.00
48053;BME280;33824;51.600;5.718;2023-12-20T07:39:11;101390.91;;;6.77;100.00
48053;BME280;33824;51.600;5.718;2023-12-20T07:41:36;101395.38;;;6.76;100.00
48053;BME280;33824;51.600;5.718;2023-12-20T07:44:04;101387.25;;;6.78;100.00
48053;BME280;33824;51.600;5.718;2023-12-20T07:46:29;101380.88;;;6.80;100.00
48053;BME280;33824;51.600;5.718;2023-12-20T07:48:55;101379.75;;;6.83;100.00
48053;BME280;33824;51.600;5.718;2023-12-20T07:51:20;101385.06;;;6.83;100.00
48053;BME280;33824;51.600;5.718;2023-12-20T07:53:46;101402.38;;;6.87;100.00
48053;BME280;33824;51.600;5.718;2023-12-20T07:56:15;101393.00;;;6.83;100.00
48053;BME280;33824;51.600;5.718;2023-12-20T07:58:41;101388.25;;;6.86;100.00
48053;BME280;33824;51.600;5.718;2023-12-20T08:01:07;101392.59;;;6.87;100.00
48053;BME280;33824;51.600;5.718;2023-12-20T08:03:33;101387.88;;;6.91;100.00
48053;BME280;33824;51.600;5.718;2023-12-20T08:05:58;101393.28;;;6.89;100.00
48053;BME280;33824;51.600;5.718;2023-12-20T08:08:25;101398.47;;;6.91;100.00
48053;BME280;33824;51.600;5.718;2023-12-20T08:10:50;101390.50;;;6.91;100.00
48053;BME280;33824;51.600;5.718;2023-12-20T08:13:16;101398.34;;;6.92;100.00
48053;BME280;33824;51.600;5.718;2023-12-20T08:15:41;101392.75;;;6.95;100.00
48053;BME280;33824;51.600;5.718;2023-12-20T08:18:07;101403.09;;;6.98;100.00
48053;BME280;33824;51.600;5.718;2023-12-20T08:20:33;101419.97;;;6.97;100.00
48053;BME280;33824;51.600;5.718;2023-12-20T08:22:58;101417.03;;;7.00;100.00
48053;BME280;33824;51.600;5.718;2023-12-20T08:25:24;101424.44;;;7.06;100.00
48053;BME280;33824;51.600;5.718;2023-12-20T08:27:49;101407.69;;;7.06;100.00
48053;BME280;33824;51.600;5.718;2023-12-20T08:30:15;101413.69;;;7.08;100.00
48053;BME280;33824;51.600;5.718;2023-12-20T08:32:43;101418.59;;;7.12;100.00
48053;BME280;33824;51.600;5.718;2023-12-20T08:35:08;101415.94;;;7.12;100.00
48053;BME280;33824;51.600;5.718;2023-12-20T08:37:34;101419.31;;;7.14;100.00
48053;BME280;33824;51.600;5.718;2023-12-20T08:40:01;101417.22;;;7.18;100.00
48053;BME280;33824;51.600;5.718;2023-12-20T08:42:26;101415.97;;;7.22;100.00
48053;BME280;33824;51.600;5.718;2023-12-20T08:44:56;101411.63;;;7.21;100.00
48053;BME280;33824;51.600;5.718;2023-12-20T08:47:23;101406.59;;;7.28;100.00
48053;BME280;33824;51.600;5.718;2023-12-20T08:49:48;101408.00;;;7.32;100.00
48053;BME280;33824;51.600;5.718;2023-12-20T08:52:14;101383.03;;;7.34;100.00
48053;BME280;33824;51.600;5.718;2023-12-20T08:54:39;101396.13;;;7.36;100.00
48053;BME280;33824;51.600;5.718;2023-12-20T08:57:05;101396.97;;;7.36;100.00
48053;BME280;33824;51.600;5.718;2023-12-20T08:59:32;101389.69;;;7.38;100.00
48053;BME280;33824;51.600;5.718;2023-12-20T09:01:58;101388.72;;;7.39;100.00
48053;BME280;33824;51.600;5.718;2023-12-20T09:04:23;101401.56;;;7.44;100.00
48053;BME280;33824;51.600;5.718;2023-12-20T09:06:51;101393.19;;;7.48;100.00
48053;BME280;33824;51.600;5.718;2023-12-20T09:09:16;101378.13;;;7.49;100.00
48053;BME280;33824;51.600;5.718;2023-12-20T09:11:42;101379.78;;;7.50;100.00
48053;BME280;33824;51.600;5.718;2023-12-20T09:14:07;101385.78;;;7.52;100.00
48053;BME280;33824;51.600;5.718;2023-12-20T09:16:33;101386.22;;;7.57;100.00
48053;BME280;33824;51.600;5.718;2023-12-20T09:18:59;101372.94;;;7.57;100.00
48053;BME280;33824;51.600;5.718;2023-12-20T09:21:24;101381.88;;;7.56;100.00
48053;BME280;33824;51.600;5.718;2023-12-20T09:23:50;101396.53;;;7.60;100.00
48053;BME280;33824;51.600;5.718;2023-12-20T09:26:16;101396.25;;;7.63;100.00
48053;BME280;33824;51.600;5.718;2023-12-20T09:28:41;101389.97;;;7.64;100.00
48053;BME280;33824;51.600;5.718;2023-12-20T09:31:07;101395.84;;;7.67;100.00
48053;BME280;33824;51.600;5.718;2023-12-20T09:33:33;101396.13;;;7.64;100.00
48053;BME280;33824;51.600;5.718;2023-12-20T09:35:59;101395.97;;;7.66;100.00
48053;BME280;33824;51.600;5.718;2023-12-20T09:38:25;101384.22;;;7.68;100.00
48053;BME280;33824;51.600;5.718;2023-12-20T09:40:50;101383.25;;;7.69;100.00
48053;BME280;33824;51.600;5.718;2023-12-20T09:43:19;101377.69;;;7.63;100.00
48053;BME280;33824;51.600;5.718;2023-12-20T09:45:49;101392.63;;;7.64;100.00
48053;BME280;33824;51.600;5.718;2023-12-20T09:48:18;101392.19;;;7.68;100.00
48053;BME280;33824;51.600;5.718;2023-12-20T09:50:44;101382.28;;;7.70;100.00
48053;BME280;33824;51.600;5.718;2023-12-20T09:53:11;101391.22;;;7.69;100.00
48053;BME280;33824;51.600;5.718;2023-12-20T09:55:41;101385.91;;;7.69;100.00
48053;BME280;33824;51.600;5.718;2023-12-20T09:58:06;101391.63;;;7.75;100.00
48053;BME280;33824;51.600;5.718;2023-12-20T10:00:34;101377.66;;;7.72;100.00
48053;BME280;33824;51.600;5.718;2023-12-20T10:03:00;101398.88;;;7.72;100.00
48053;BME280;33824;51.600;5.718;2023-12-20T10:05:29;101383.53;;;7.76;100.00
48053;BME280;33824;51.600;5.718;2023-12-20T10:07:55;101388.69;;;7.78;100.00
48053;BME280;33824;51.600;5.718;2023-12-20T10:10:20;101390.38;;;7.79;100.00
48053;BME280;33824;51.600;5.718;2023-12-20T10:13:04;101390.53;;;7.67;100.00
48053;BME280;33824;51.600;5.718;2023-12-20T10:15:32;101386.44;;;7.83;100.00
48053;BME280;33824;51.600;5.718;2023-12-20T10:17:58;101390.78;;;7.84;100.00
48053;BME280;33824;51.600;5.718;2023-12-20T10:20:25;101395.09;;;7.85;100.00
48053;BME280;33824;51.600;5.718;2023-12-20T10:22:51;101382.25;;;7.90;100.00
48053;BME280;33824;51.600;5.718;2023-12-20T10:25:20;101383.38;;;7.87;100.00
48053;BME280;33824;51.600;5.718;2023-12-20T10:27:46;101390.50;;;7.87;100.00
48053;BME280;33824;51.600;5.718;2023-12-20T10:30:13;101387.84;;;7.87;100.00
48053;BME280;33824;51.600;5.718;2023-12-20T10:32:39;101406.69;;;7.93;100.00
48053;BME280;33824;51.600;5.718;2023-12-20T10:35:06;101388.09;;;7.93;100.00
48053;BME280;33824;51.600;5.718;2023-12-20T10:37:36;101386.56;;;7.91;100.00
48053;BME280;33824;51.600;5.718;2023-12-20T10:40:04;101386.69;;;7.99;100.00
48053;BME280;33824;51.600;5.718;2023-12-20T10:42:32;101371.75;;;7.98;100.00
48053;BME280;33824;51.600;5.718;2023-12-20T10:45:01;101375.78;;;8.02;100.00
48053;BME280;33824;51.600;5.718;2023-12-20T10:47:27;101361.06;;;8.07;100.00
48053;BME280;33824;51.600;5.718;2023-12-20T10:49:54;101353.81;;;8.09;100.00
48053;BME280;33824;51.600;5.718;2023-12-20T10:52:22;101368.50;;;8.04;100.00
48053;BME280;33824;51.600;5.718;2023-12-20T10:54:48;101349.34;;;8.10;100.00
48053;BME280;33824;51.600;5.718;2023-12-20T10:57:17;101363.19;;;8.04;100.00
48053;BME280;33824;51.600;5.718;2023-12-20T10:59:44;101355.09;;;8.05;100.00
48053;BME280;33824;51.600;5.718;2023-12-20T11:02:12;101352.97;;;8.09;100.00
48053;BME280;33824;51.600;5.718;2023-12-20T11:05:06;101363.47;;;8.01;100.00
48053;BME280;33824;51.600;5.718;2023-12-20T11:07:32;101358.03;;;8.02;100.00
48053;BME280;33824;51.600;5.718;2023-12-20T11:10:02;101354.53;;;8.02;100.00
48053;BME280;33824;51.600;5.718;2023-12-20T11:12:43;101346.16;;;7.97;100.00
48053;BME280;33824;51.600;5.718;2023-12-20T11:15:12;101343.72;;;8.13;100.00
48053;BME280;33824;51.600;5.718;2023-12-20T11:17:38;101345.84;;;8.09;100.00
48053;BME280;33824;51.600;5.718;2023-12-20T11:20:06;101335.59;;;8.14;100.00
48053;BME280;33824;51.600;5.718;2023-12-20T11:22:31;101337.16;;;8.17;100.00
48053;BME280;33824;51.600;5.718;2023-12-20T11:25:02;101342.69;;;8.24;100.00
48053;BME280;33824;51.600;5.718;2023-12-20T11:27:30;101335.72;;;8.23;100.00
48053;BME280;33824;51.600;5.718;2023-12-20T11:29:56;101332.75;;;8.26;100.00
48053;BME280;33824;51.600;5.718;2023-12-20T11:34:53;101321.72;;;8.30;100.00
48053;BME280;33824;51.600;5.718;2023-12-20T11:37:19;101322.97;;;8.36;100.00
48053;BME280;33824;51.600;5.718;2023-12-20T11:39:45;101318.50;;;8.36;100.00
48053;BME280;33824;51.600;5.718;2023-12-20T11:42:19;101316.50;;;8.38;100.00
48053;BME280;33824;51.600;5.718;2023-12-20T11:44:46;101316.38;;;8.40;100.00
48053;BME280;33824;51.600;5.718;2023-12-20T11:47:12;101307.41;;;8.41;100.00
48053;BME280;33824;51.600;5.718;2023-12-20T11:49:39;101314.09;;;8.45;100.00
48053;BME280;33824;51.600;5.718;2023-12-20T11:52:05;101315.09;;;8.44;100.00
48053;BME280;33824;51.600;5.718;2023-12-20T11:54:31;101321.91;;;8.46;100.00
48053;BME280;33824;51.600;5.718;2023-12-20T11:56:57;101315.75;;;8.46;100.00
48053;BME280;33824;51.600;5.718;2023-12-20T11:59:23;101302.09;;;8.41;100.00
48053;BME280;33824;51.600;5.718;2023-12-20T12:01:49;101312.03;;;8.39;100.00
48053;BME280;33824;51.600;5.718;2023-12-20T12:04:15;101303.38;;;8.27;100.00
48053;BME280;33824;51.600;5.718;2023-12-20T12:06:43;101311.09;;;8.30;100.00
48053;BME280;33824;51.600;5.718;2023-12-20T12:09:09;101300.06;;;8.25;100.00
48053;BME280;33824;51.600;5.718;2023-12-20T12:11:34;101305.50;;;8.24;100.00
48053;BME280;33824;51.600;5.718;2023-12-20T12:14:00;101297.41;;;8.25;100.00
48053;BME280;33824;51.600;5.718;2023-12-20T12:16:26;101295.72;;;8.24;100.00
48053;BME280;33824;51.600;5.718;2023-12-20T12:18:58;101281.50;;;8.15;100.00
48053;BME280;33824;51.600;5.718;2023-12-20T12:21:24;101285.03;;;7.79;100.00
48053;BME280;33824;51.600;5.718;2023-12-20T12:23:50;101285.19;;;8.05;100.00
48053;BME280;33824;51.600;5.718;2023-12-20T12:26:16;101278.91;;;8.06;100.00
48053;BME280;33824;51.600;5.718;2023-12-20T12:28:42;101282.47;;;8.14;100.00
48053;BME280;33824;51.600;5.718;2023-12-20T12:31:09;101281.66;;;8.14;100.00
48053;BME280;33824;51.600;5.718;2023-12-20T12:33:40;101274.97;;;8.10;100.00
48053;BME280;33824;51.600;5.718;2023-12-20T12:36:07;101267.69;;;8.12;100.00
48053;BME280;33824;51.600;5.718;2023-12-20T12:38:33;101267.91;;;8.18;100.00
48053;BME280;33824;51.600;5.718;2023-12-20T12:40:59;101272.56;;;8.16;100.00
48053;BME280;33824;51.600;5.718;2023-12-20T12:43:26;101271.56;;;8.17;100.00
48053;BME280;33824;51.600;5.718;2023-12-20T12:45:51;101270.56;;;8.18;100.00
48053;BME280;33824;51.600;5.718;2023-12-20T12:48:17;101273.53;;;8.15;100.00